createdAt,value
2022-10-25T00:01:20.232Z,12.23
2022-10-25T00:03:47.035Z,12.15
2022-10-25T00:06:14.515Z,12.11
2022-10-25T00:08:41.327Z,12.10
2022-10-25T00:11:11.127Z,12.00
2022-10-25T00:13:37.625Z,11.96
2022-10-25T00:16:04.361Z,11.95
2022-10-25T00:18:30.722Z,11.90
2022-10-25T00:20:57.163Z,11.95
2022-10-25T00:23:23.578Z,11.90
2022-10-25T00:25:50.013Z,11.85
2022-10-25T00:28:16.373Z,11.97
2022-10-25T00:30:42.742Z,11.97
2022-10-25T00:33:09.128Z,12.05
2022-10-25T00:35:36.873Z,12.11
2022-10-25T00:38:03.245Z,12.13
2022-10-25T00:40:29.645Z,12.25
2022-10-25T00:42:56.082Z,12.37
2022-10-25T00:45:28.697Z,12.32
2022-10-25T00:48:00.153Z,12.29
2022-10-25T00:50:39.952Z,12.29
2022-10-25T00:53:12.405Z,12.28
2022-10-25T00:55:45.551Z,12.33
2022-10-25T00:58:16.966Z,12.43
2022-10-25T01:00:44.423Z,12.53
2022-10-25T01:03:10.795Z,12.48
2022-10-25T01:05:37.657Z,12.48
2022-10-25T01:08:05.246Z,12.52
2022-10-25T01:10:31.777Z,12.61
2022-10-25T01:13:01.763Z,12.71
2022-10-25T01:15:35.480Z,12.70
2022-10-25T01:18:15.019Z,12.65
2022-10-25T01:20:59.653Z,12.61
2022-10-25T01:24:10.974Z,12.62
2022-10-25T01:27:10.925Z,12.66
2022-10-25T01:29:39.982Z,12.72
2022-10-25T01:32:21.157Z,12.65
2022-10-25T01:35:13.362Z,12.79
2022-10-25T01:37:49.735Z,12.77
2022-10-25T01:40:44.022Z,12.76
2022-10-25T01:43:20.732Z,12.77
2022-10-25T01:45:58.489Z,12.78
2022-10-25T01:48:36.463Z,12.81
2022-10-25T01:51:10.922Z,12.86
2022-10-25T01:53:48.775Z,12.82
2022-10-25T01:56:24.822Z,12.82
2022-10-25T01:59:32.153Z,12.74
2022-10-25T02:02:15.286Z,12.76
2022-10-25T02:04:50.276Z,12.89
2022-10-25T02:07:41.688Z,12.90
2022-10-25T02:10:19.687Z,12.89
2022-10-25T02:13:01.228Z,12.79
2022-10-25T02:15:36.895Z,12.87
2022-10-25T02:18:07.521Z,12.83
2022-10-25T02:20:35.720Z,12.95
2022-10-25T02:23:05.356Z,12.99
2022-10-25T02:25:34.805Z,12.89
2022-10-25T02:28:06.168Z,12.84
2022-10-25T02:30:34.673Z,12.91
2022-10-25T02:33:01.520Z,12.97
2022-10-25T02:35:27.902Z,12.90
2022-10-25T02:37:54.264Z,12.89
2022-10-25T02:40:21.358Z,12.91
2022-10-25T02:42:47.687Z,12.93
2022-10-25T02:45:14.197Z,12.83
2022-10-25T02:47:40.589Z,12.90
2022-10-25T02:50:07.192Z,12.95
2022-10-25T02:52:33.585Z,13.01
2022-10-25T02:54:59.948Z,12.96
2022-10-25T02:57:26.433Z,12.91
2022-10-25T02:59:52.796Z,12.91
2022-10-25T03:02:19.131Z,12.95
2022-10-25T03:04:45.509Z,12.94
2022-10-25T03:07:11.966Z,12.96
2022-10-25T03:09:38.388Z,13.00
2022-10-25T03:12:04.789Z,13.01
2022-10-25T03:14:31.187Z,12.98
2022-10-25T03:16:57.571Z,13.00
2022-10-25T03:19:23.991Z,13.05
2022-10-25T03:21:50.367Z,13.04
2022-10-25T03:24:17.013Z,13.08
2022-10-25T03:26:43.362Z,13.03
2022-10-25T03:29:09.740Z,13.03
2022-10-25T03:31:36.119Z,13.11
2022-10-25T03:34:02.487Z,13.15
2022-10-25T03:36:28.887Z,13.07
2022-10-25T03:38:55.252Z,13.08
2022-10-25T03:41:21.596Z,13.03
2022-10-25T03:43:47.981Z,13.09
2022-10-25T03:46:14.381Z,13.02
2022-10-25T03:48:40.791Z,12.98
2022-10-25T03:51:07.230Z,13.05
2022-10-25T03:53:33.700Z,13.06
2022-10-25T03:56:00.046Z,13.08
2022-10-25T03:58:26.410Z,13.04
2022-10-25T04:00:52.828Z,12.97
2022-10-25T04:03:19.307Z,13.04
2022-10-25T04:05:45.661Z,13.02
2022-10-25T04:08:12.025Z,12.97
2022-10-25T04:10:38.382Z,12.97
2022-10-25T04:13:04.783Z,12.99
2022-10-25T04:15:31.179Z,12.92
2022-10-25T04:17:57.543Z,13.10
2022-10-25T04:20:23.966Z,13.00
2022-10-25T04:22:57.625Z,12.98
2022-10-25T04:25:26.468Z,12.99
2022-10-25T04:27:53.202Z,12.94
2022-10-25T04:30:19.772Z,13.01
2022-10-25T04:32:46.586Z,13.04
2022-10-25T04:35:13.320Z,12.95
2022-10-25T04:37:39.664Z,12.90
2022-10-25T04:40:06.611Z,12.96
2022-10-25T04:42:34.029Z,12.92
2022-10-25T04:45:01.011Z,13.00
2022-10-25T04:47:30.994Z,12.94
2022-10-25T04:49:57.360Z,13.01
2022-10-25T04:52:23.765Z,12.89
2022-10-25T04:54:50.125Z,12.88
2022-10-25T04:57:16.482Z,13.00
2022-10-25T04:59:42.816Z,12.99
2022-10-25T05:02:09.162Z,12.99
2022-10-25T05:04:35.523Z,13.06
2022-10-25T05:07:01.896Z,13.00
2022-10-25T05:09:28.288Z,13.04
2022-10-25T05:11:54.644Z,13.14
2022-10-25T05:14:21.268Z,13.07
2022-10-25T05:16:47.638Z,13.12
2022-10-25T05:19:14.005Z,13.07
2022-10-25T05:21:40.420Z,13.07
2022-10-25T05:24:06.857Z,13.01
2022-10-25T05:26:33.359Z,13.11
2022-10-25T05:28:59.716Z,13.11
2022-10-25T05:31:29.368Z,13.06
2022-10-25T05:33:58.556Z,13.09
2022-10-25T05:36:25.345Z,13.02
2022-10-25T05:38:51.838Z,13.06
2022-10-25T05:41:18.748Z,12.97
2022-10-25T05:43:46.185Z,12.97
2022-10-25T05:46:23.501Z,13.02
2022-10-25T05:48:51.094Z,13.00
2022-10-25T05:51:33.247Z,13.00
2022-10-25T05:54:03.321Z,13.02
2022-10-25T05:56:31.670Z,12.98
2022-10-25T05:58:58.368Z,13.02
2022-10-25T06:01:26.446Z,13.01
2022-10-25T06:03:55.252Z,13.05
2022-10-25T06:06:22.684Z,13.06
2022-10-25T06:08:49.075Z,12.99
2022-10-25T06:11:18.021Z,12.89
2022-10-25T06:13:44.847Z,12.99
2022-10-25T06:16:14.313Z,12.84
2022-10-25T06:18:40.695Z,12.96
2022-10-25T06:21:12.446Z,13.06
2022-10-25T06:23:39.808Z,13.19
2022-10-25T06:26:12.262Z,13.19
2022-10-25T06:28:39.226Z,13.12
2022-10-25T06:31:11.634Z,13.08
2022-10-25T06:33:39.047Z,13.12
2022-10-25T06:36:07.665Z,13.18
2022-10-25T06:38:34.265Z,13.07
2022-10-25T06:41:04.528Z,13.18
2022-10-25T06:43:31.390Z,13.17
2022-10-25T06:45:57.793Z,13.15
2022-10-25T06:48:24.445Z,13.20
2022-10-25T06:51:01.652Z,13.10
2022-10-25T06:53:28.066Z,13.10
2022-10-25T06:55:54.401Z,13.15
2022-10-25T06:58:20.782Z,13.18
2022-10-25T07:00:49.559Z,13.16
2022-10-25T07:03:16.172Z,13.12
2022-10-25T07:05:42.633Z,13.23
2022-10-25T07:08:08.980Z,13.21
2022-10-25T07:10:35.321Z,13.21
2022-10-25T07:13:01.675Z,13.23
2022-10-25T07:15:28.037Z,13.33
2022-10-25T07:17:55.100Z,13.46
2022-10-25T07:20:21.451Z,13.53
2022-10-25T07:22:47.840Z,13.51
2022-10-25T07:25:14.204Z,13.51
2022-10-25T07:27:40.567Z,13.57
2022-10-25T07:30:07.493Z,13.64
2022-10-25T07:32:33.841Z,13.56
2022-10-25T07:35:00.408Z,13.51
2022-10-25T07:37:27.011Z,13.55
2022-10-25T07:39:53.371Z,13.59
2022-10-25T07:42:19.764Z,13.61
2022-10-25T07:47:12.417Z,13.71
2022-10-25T07:49:38.757Z,13.74
2022-10-25T07:52:05.307Z,13.77
2022-10-25T07:54:31.705Z,13.99
2022-10-25T07:56:58.174Z,14.13
2022-10-25T07:59:24.529Z,14.30
2022-10-25T08:01:50.981Z,14.30
2022-10-25T08:04:17.408Z,14.34
2022-10-25T08:06:43.743Z,14.28
2022-10-25T08:09:15.045Z,14.23
2022-10-25T08:11:53.080Z,14.27
2022-10-25T08:14:19.508Z,14.30
2022-10-25T08:16:45.971Z,14.29
2022-10-25T08:19:12.353Z,14.22
2022-10-25T08:21:38.746Z,14.25
2022-10-25T08:24:05.693Z,14.39
2022-10-25T08:26:36.649Z,14.39
2022-10-25T08:29:03.550Z,14.43
2022-10-25T08:31:30.023Z,14.71
2022-10-25T08:33:56.398Z,14.94
2022-10-25T08:36:22.742Z,15.20
2022-10-25T08:38:49.098Z,15.42
2022-10-25T08:41:25.701Z,15.44
2022-10-25T08:43:58.093Z,15.38
2022-10-25T08:46:53.166Z,15.47
2022-10-25T08:49:46.514Z,15.35
2022-10-25T08:52:26.694Z,15.22
2022-10-25T08:54:56.070Z,15.58
2022-10-25T08:57:25.464Z,15.61
2022-10-25T08:59:57.155Z,15.65
2022-10-25T09:02:34.229Z,15.75
2022-10-25T09:05:00.777Z,15.77
2022-10-25T09:08:03.213Z,15.63
2022-10-25T09:10:44.338Z,15.51
2022-10-25T09:13:16.040Z,15.37
2022-10-25T09:15:50.381Z,15.29
2022-10-25T09:18:18.087Z,15.26
2022-10-25T09:20:50.030Z,15.26
2022-10-25T09:23:29.737Z,15.29
2022-10-25T09:26:04.334Z,15.38
2022-10-25T09:28:55.090Z,15.62
2022-10-25T09:31:25.364Z,15.76
2022-10-25T09:34:03.194Z,15.96
2022-10-25T09:36:41.204Z,15.65
2022-10-25T09:39:31.070Z,15.70
2022-10-25T09:41:59.856Z,15.69
2022-10-25T09:44:36.834Z,15.58
2022-10-25T09:47:13.501Z,15.60
2022-10-25T09:49:57.939Z,15.63
2022-10-25T09:52:28.033Z,15.49
2022-10-25T09:55:20.730Z,15.47
2022-10-25T09:57:47.353Z,15.62
2022-10-25T10:00:15.298Z,15.80
2022-10-25T10:02:42.063Z,15.81
2022-10-25T10:05:16.926Z,15.79
2022-10-25T10:07:44.912Z,15.56
2022-10-25T10:10:15.662Z,15.40
2022-10-25T10:13:12.961Z,15.48
2022-10-25T10:15:59.849Z,15.49
2022-10-25T10:18:33.430Z,15.42
2022-10-25T10:21:12.070Z,15.51
2022-10-25T10:23:41.448Z,15.46
2022-10-25T10:26:23.130Z,15.73
2022-10-25T10:28:54.402Z,16.01
2022-10-25T10:31:20.943Z,16.11
2022-10-25T10:33:50.169Z,16.18
2022-10-25T10:36:25.426Z,16.20
2022-10-25T10:38:52.048Z,16.05
2022-10-25T10:41:27.609Z,15.87
2022-10-25T10:44:13.531Z,15.67
2022-10-25T10:46:45.297Z,15.55
2022-10-25T10:49:13.210Z,15.56
2022-10-25T10:51:44.673Z,15.38
2022-10-25T10:54:17.848Z,15.37
2022-10-25T10:56:52.903Z,15.31
2022-10-25T10:59:39.736Z,15.09
2022-10-25T11:02:36.991Z,14.98
2022-10-25T11:05:20.306Z,14.68
2022-10-25T11:07:54.196Z,14.72
2022-10-25T11:10:24.048Z,14.89
2022-10-25T11:13:10.654Z,15.08
2022-10-25T11:15:56.916Z,15.01
2022-10-25T11:19:04.785Z,15.12
2022-10-25T11:21:39.871Z,15.07
2022-10-25T11:24:15.420Z,15.25
2022-10-25T11:26:57.458Z,15.49
2022-10-25T11:29:47.757Z,15.56
2022-10-25T11:35:42.571Z,16.07
2022-10-25T11:38:15.227Z,16.30
2022-10-25T11:40:54.450Z,16.47
2022-10-25T11:43:41.475Z,16.37
2022-10-25T11:46:28.383Z,16.34
2022-10-25T11:49:18.932Z,16.53
2022-10-25T11:52:05.091Z,16.60
2022-10-25T11:54:36.713Z,16.46
2022-10-25T11:57:06.079Z,16.42
2022-10-25T11:59:38.413Z,16.40
2022-10-25T12:02:16.100Z,16.47
2022-10-25T12:05:00.702Z,16.37
2022-10-25T12:07:41.903Z,16.39
2022-10-25T12:10:31.964Z,16.42
2022-10-25T12:13:05.918Z,16.63
2022-10-25T12:15:43.141Z,16.64
2022-10-25T12:18:16.180Z,16.80
2022-10-25T12:20:46.416Z,16.86
2022-10-25T12:23:18.690Z,16.57
2022-10-25T12:25:49.365Z,16.43
2022-10-25T12:28:32.094Z,16.37
2022-10-25T12:31:09.243Z,16.24
2022-10-25T12:33:41.159Z,16.33
2022-10-25T12:36:15.702Z,16.44
2022-10-25T12:38:42.026Z,16.53
2022-10-25T12:41:27.855Z,16.62
2022-10-25T12:44:32.471Z,16.78
2022-10-25T12:47:23.822Z,16.88
2022-10-25T12:50:22.756Z,16.84
2022-10-25T12:53:23.509Z,16.55
2022-10-25T12:56:01.890Z,16.51
2022-10-25T12:59:04.612Z,16.45
2022-10-25T13:01:39.827Z,16.41
2022-10-25T13:04:27.059Z,16.57
2022-10-25T13:06:54.512Z,16.46
2022-10-25T13:09:26.929Z,16.12
2022-10-25T13:12:18.084Z,16.09
2022-10-25T13:14:56.155Z,15.93
2022-10-25T13:17:22.426Z,15.87
2022-10-25T13:19:55.235Z,15.78
2022-10-25T13:22:28.031Z,15.63
2022-10-25T13:24:55.018Z,15.37
2022-10-25T13:27:29.586Z,15.35
2022-10-25T13:30:04.774Z,15.34
2022-10-25T13:32:42.165Z,15.25
2022-10-25T13:35:20.655Z,15.09
2022-10-25T13:37:53.006Z,15.06
2022-10-25T13:40:28.513Z,15.00
2022-10-25T13:43:06.540Z,14.98
2022-10-25T13:45:41.941Z,15.07
2022-10-25T13:48:14.196Z,15.05
2022-10-25T13:50:47.422Z,15.06
2022-10-25T13:53:22.079Z,15.17
2022-10-25T13:56:14.139Z,15.23
2022-10-25T13:58:45.388Z,15.54
2022-10-25T14:01:17.764Z,15.65
2022-10-25T14:04:02.723Z,15.85
2022-10-25T14:06:32.682Z,15.90
2022-10-25T14:09:37.306Z,15.86
2022-10-25T14:12:06.582Z,15.84
2022-10-25T14:14:47.275Z,15.86
2022-10-25T14:17:42.779Z,15.97
2022-10-25T14:20:31.787Z,15.82
2022-10-25T14:23:03.675Z,15.40
2022-10-25T14:25:36.802Z,15.27
2022-10-25T14:28:05.373Z,15.17
2022-10-25T14:30:36.119Z,15.05
2022-10-25T14:33:05.824Z,14.92
2022-10-25T14:36:16.856Z,14.73
2022-10-25T14:38:52.489Z,14.88
2022-10-25T14:41:24.939Z,14.84
2022-10-25T14:43:51.931Z,14.86
2022-10-25T14:46:21.017Z,14.86
2022-10-25T14:48:48.817Z,14.94
2022-10-25T14:51:21.503Z,14.98
2022-10-25T14:54:01.732Z,14.96
2022-10-25T14:56:33.073Z,14.96
2022-10-25T14:59:00.690Z,15.01
2022-10-25T15:01:27.463Z,15.01
2022-10-25T15:03:57.055Z,14.99
2022-10-25T15:06:28.425Z,14.87
2022-10-25T15:09:16.250Z,14.75
2022-10-25T15:12:14.126Z,14.52
2022-10-25T15:14:40.741Z,14.34
2022-10-25T15:17:22.194Z,14.21
2022-10-25T15:20:26.233Z,14.02
2022-10-25T15:23:02.457Z,13.93
2022-10-25T15:25:37.179Z,13.96
2022-10-25T15:28:12.678Z,13.94
2022-10-25T15:30:47.467Z,14.12
2022-10-25T15:33:34.058Z,14.16
2022-10-25T15:36:04.944Z,14.22
2022-10-25T15:38:54.233Z,14.33
2022-10-25T15:41:20.927Z,14.28
2022-10-25T15:43:47.245Z,14.21
2022-10-25T15:46:36.599Z,13.98
2022-10-25T15:49:06.675Z,13.91
2022-10-25T15:51:35.935Z,13.83
2022-10-25T15:54:02.250Z,13.71
2022-10-25T15:56:28.628Z,13.63
2022-10-25T15:58:54.924Z,13.44
2022-10-25T16:01:21.575Z,13.31
2022-10-25T16:03:47.996Z,13.23
2022-10-25T16:06:14.553Z,13.18
2022-10-25T16:08:41.698Z,13.09
2022-10-25T16:11:16.403Z,13.00
2022-10-25T16:13:45.389Z,12.96
2022-10-25T16:16:39.380Z,12.82
2022-10-25T16:19:09.844Z,12.58
2022-10-25T16:21:36.238Z,12.66
2022-10-25T16:24:02.745Z,12.69
2022-10-25T16:26:39.255Z,12.55
2022-10-25T16:29:05.560Z,12.52
2022-10-25T16:31:31.930Z,12.53
2022-10-25T16:33:58.250Z,12.46
2022-10-25T16:36:24.565Z,12.44
2022-10-25T16:38:50.916Z,12.37
2022-10-25T16:41:26.175Z,12.31
2022-10-25T16:43:52.481Z,12.20
2022-10-25T16:46:18.800Z,12.19
2022-10-25T16:48:45.364Z,12.14
2022-10-25T16:51:16.605Z,12.12
2022-10-25T16:53:43.623Z,12.07
2022-10-25T16:56:10.481Z,12.04
2022-10-25T16:58:40.962Z,12.01
2022-10-25T17:01:28.566Z,11.87
2022-10-25T17:03:55.171Z,11.80
2022-10-25T17:06:40.324Z,11.77
2022-10-25T17:09:06.957Z,11.70
2022-10-25T17:11:33.274Z,11.72
2022-10-25T17:13:59.589Z,11.67
2022-10-25T17:16:25.923Z,11.64
2022-10-25T17:18:52.332Z,11.60
2022-10-25T17:21:18.631Z,11.48
2022-10-25T17:23:44.963Z,11.44
2022-10-25T17:26:11.335Z,11.43
2022-10-25T17:28:43.025Z,11.34
2022-10-25T17:31:12.598Z,11.28
2022-10-25T17:33:39.136Z,11.22
2022-10-25T17:36:12.147Z,11.18
2022-10-25T17:38:38.640Z,11.18
2022-10-25T17:41:05.305Z,11.16
2022-10-25T17:43:32.064Z,11.14
2022-10-25T17:46:03.328Z,11.08
2022-10-25T17:48:30.669Z,11.02
2022-10-25T17:51:04.402Z,10.99
2022-10-25T17:53:30.813Z,10.98
2022-10-25T17:55:57.725Z,10.99
2022-10-25T17:58:24.402Z,11.00
2022-10-25T18:00:51.006Z,10.99
2022-10-25T18:03:17.417Z,10.97
2022-10-25T18:05:43.705Z,10.96
2022-10-25T18:08:10.030Z,10.85
2022-10-25T18:10:36.363Z,10.86
2022-10-25T18:13:02.677Z,10.83
2022-10-25T18:15:28.990Z,10.73
2022-10-25T18:17:55.306Z,10.66
2022-10-25T18:20:21.637Z,10.68
2022-10-25T18:22:47.937Z,10.67
2022-10-25T18:25:14.317Z,10.63
2022-10-25T18:27:40.634Z,10.47
2022-10-25T18:30:07.699Z,10.46
2022-10-25T18:32:36.207Z,10.49
2022-10-25T18:35:02.927Z,10.37
2022-10-25T18:37:29.235Z,10.32
2022-10-25T18:39:56.583Z,10.39
2022-10-25T18:42:23.081Z,10.30
2022-10-25T18:44:49.397Z,10.23
2022-10-25T18:47:15.953Z,10.15
2022-10-25T18:49:42.275Z,10.13
2022-10-25T18:52:08.669Z,10.12
2022-10-25T18:54:35.000Z,10.08
2022-10-25T18:57:01.380Z,10.10
2022-10-25T18:59:27.818Z,10.21
2022-10-25T19:01:54.409Z,10.27
2022-10-25T19:04:21.001Z,10.19
2022-10-25T19:06:47.323Z,10.06
2022-10-25T19:09:13.654Z,9.95
2022-10-25T19:11:40.101Z,9.86
2022-10-25T19:14:06.450Z,9.77
2022-10-25T19:16:32.782Z,9.77
2022-10-25T19:19:03.579Z,9.95
2022-10-25T19:21:29.954Z,9.86
2022-10-25T19:23:56.275Z,9.83
2022-10-25T19:26:22.650Z,9.92
2022-10-25T19:28:56.017Z,9.85
2022-10-25T19:31:22.504Z,9.88
2022-10-25T19:33:50.154Z,9.95
2022-10-25T19:36:17.495Z,10.00
2022-10-25T19:38:44.110Z,10.04
2022-10-25T19:41:16.010Z,10.06
2022-10-25T19:43:42.665Z,10.09
2022-10-25T19:46:09.336Z,10.12
2022-10-25T19:48:35.733Z,10.10
2022-10-25T19:51:07.394Z,10.00
2022-10-25T19:53:34.106Z,9.96
2022-10-25T19:56:24.962Z,9.91
2022-10-25T19:58:51.634Z,9.87
2022-10-25T20:01:21.213Z,9.96
2022-10-25T20:03:50.636Z,9.88
2022-10-25T20:06:23.363Z,9.86
2022-10-25T20:08:52.425Z,9.81
2022-10-25T20:11:19.837Z,9.81
2022-10-25T20:13:46.538Z,9.82
2022-10-25T20:16:13.970Z,9.77
2022-10-25T20:18:41.689Z,9.71
2022-10-25T20:21:11.033Z,9.74
2022-10-25T20:23:38.482Z,9.69
2022-10-25T20:26:14.765Z,9.62
2022-10-25T20:28:42.046Z,9.67
2022-10-25T20:31:08.832Z,9.65
2022-10-25T20:33:35.579Z,9.59
2022-10-25T20:36:04.582Z,9.60
2022-10-25T20:38:32.700Z,9.57
2022-10-25T20:41:03.736Z,9.50
2022-10-25T20:43:30.118Z,9.45
2022-10-25T20:45:56.480Z,9.37
2022-10-25T20:48:22.864Z,9.41
2022-10-25T20:50:49.245Z,9.37
2022-10-25T20:53:16.669Z,9.33
2022-10-25T20:55:45.032Z,9.28
2022-10-25T20:58:11.406Z,9.27
2022-10-25T21:00:37.741Z,9.25
2022-10-25T21:03:04.068Z,9.23
2022-10-25T21:05:30.539Z,9.24
2022-10-25T21:07:56.849Z,9.19
2022-10-25T21:10:23.182Z,9.32
2022-10-25T21:12:49.550Z,9.37
2022-10-25T21:15:16.071Z,9.35
2022-10-25T21:17:42.379Z,9.33
2022-10-25T21:20:09.234Z,9.35
2022-10-25T21:22:35.586Z,9.41
2022-10-25T21:25:01.888Z,9.37
2022-10-25T21:27:28.217Z,9.39
2022-10-25T21:29:54.524Z,9.31
2022-10-25T21:32:20.856Z,9.28
2022-10-25T21:34:47.162Z,9.32
2022-10-25T21:37:13.764Z,9.27
2022-10-25T21:39:40.149Z,9.22
2022-10-25T21:42:06.497Z,9.14
2022-10-25T21:44:32.849Z,9.16
2022-10-25T21:46:59.195Z,9.16
2022-10-25T21:49:25.522Z,9.10
2022-10-25T21:51:51.858Z,9.06
2022-10-25T21:54:18.183Z,9.17
2022-10-25T21:56:44.534Z,9.08
2022-10-25T21:59:10.821Z,9.05
2022-10-25T22:01:37.233Z,9.12
2022-10-25T22:04:03.823Z,9.01
2022-10-25T22:06:30.188Z,9.03
2022-10-25T22:08:56.915Z,8.97
2022-10-25T22:11:26.145Z,9.01
2022-10-25T22:13:58.001Z,9.01
2022-10-25T22:16:25.029Z,9.03
2022-10-25T22:18:56.303Z,9.01
2022-10-25T22:21:22.970Z,8.96
2022-10-25T22:23:49.373Z,8.92
2022-10-25T22:26:18.691Z,8.87
2022-10-25T22:28:45.255Z,8.88
2022-10-25T22:31:14.421Z,8.84
2022-10-25T22:33:41.850Z,8.76
2022-10-25T22:36:15.641Z,8.78
2022-10-25T22:38:42.046Z,8.77
2022-10-25T22:41:29.170Z,8.70
2022-10-25T22:43:55.911Z,8.74
2022-10-25T22:46:27.478Z,8.74
2022-10-25T22:48:55.387Z,8.68
2022-10-25T22:51:22.784Z,8.67
2022-10-25T22:53:49.114Z,8.68
2022-10-25T22:56:21.719Z,8.69
2022-10-25T22:58:52.937Z,8.64
2022-10-25T23:01:22.840Z,8.58
2022-10-25T23:03:52.189Z,8.59
2022-10-25T23:06:20.937Z,8.60
2022-10-25T23:08:47.589Z,8.57
2022-10-25T23:11:16.465Z,8.51
2022-10-25T23:13:43.258Z,8.46
2022-10-25T23:16:11.526Z,8.42
2022-10-25T23:18:38.625Z,8.43
2022-10-25T23:21:05.895Z,8.42
2022-10-25T23:23:37.606Z,8.39
2022-10-25T23:26:10.362Z,8.41
2022-10-25T23:28:36.678Z,8.41
2022-10-25T23:31:07.481Z,8.43
2022-10-25T23:33:34.509Z,8.47
2022-10-25T23:36:02.543Z,8.47
2022-10-25T23:38:29.382Z,8.49
2022-10-25T23:40:55.984Z,8.43
2022-10-25T23:43:22.319Z,8.45
2022-10-25T23:45:48.699Z,8.42
2022-10-25T23:48:14.993Z,8.47
2022-10-25T23:50:41.352Z,8.47
2022-10-25T23:53:08.372Z,8.53
2022-10-25T23:55:34.799Z,8.52
2022-10-25T23:58:01.482Z,8.51
